Terminal Aerodrome Forecast
Issued by NWS

Home | Current Version | Previous Version | Text Only | Print | Product List | Glossary On
Versions: 1 2 3 4 5 6 7 8 9 10 11 12 13 14 15
341
FTUS42 KTBW 231731
TAFLAL
TAF
KLAL 231731Z 2318/2418 19007KT P6SM VCSH SCT020 BKN070
     FM232200 28006KT P6SM VCSH OVC035
     FM240000 36005KT P6SM VCSH SCT015 OVC035
     FM240400 04005KT P6SM VCSH OVC030
     FM240600 05006KT P6SM SCT005 OVC040=

USA.gov is the U.S. government's official web portal to all federal, state and local government web resources and services.